Time;durP1;ratioP1;P1;durP2;ratioP2;P2;SDS_P1;SDS_P2;PMS_P1;PMS_P2;Temp;Humidity;BMP_temperature;BMP_pressure;BME280_temperature;BME280_humidity;BME280_pressure;Samples;Min_cycle;Max_cycle;Signal;HPM_P1;HPM_P2
2023/01/17 00:00:31;;;;;;;;;;;;;;;0.17;92.56;94082.57;109236;1269;58040;-83
2023/01/17 00:03:20;;;;;;;;;;;;;;;0.10;92.44;94087.10;109289;1268;22512;-83
2023/01/17 00:11:24;;;;;;;;;;;;;;;0.09;92.90;94085.60;109186;1272;84683;-83
2023/01/17 00:13:53;;;;;;;;;;;;;;;0.08;93.08;94085.25;109270;1271;22495;-83
2023/01/17 00:16:23;;;;;;;;;;;;;;;0.06;92.91;94086.67;109279;1269;23475;-83
2023/01/17 01:34:53;;;;;;;;;;;;;;;1.42;88.98;94089.86;109135;1273;22641;-83
2023/01/17 01:37:25;;;;;;;;;;;;;;;1.46;88.94;94085.52;109125;1273;22531;-83
2023/01/17 01:39:55;;;;;;;;;;;;;;;1.53;88.83;94085.63;109020;1270;72866;-83
2023/01/17 01:42:25;;;;;;;;;;;;;;;1.61;88.55;94081.70;109114;1273;26886;-83
2023/01/17 01:44:55;;;;;;;;;;;;;;;1.72;88.12;94076.31;109103;1273;22502;-83
2023/01/17 01:47:28;;;;;;;;;;;;;;;1.80;87.61;94066.37;109130;1273;23323;-83
2023/01/17 01:49:59;;;;;;;;;;;;;;;1.86;87.38;94066.08;109133;1273;22543;-83
2023/01/17 01:52:30;;;;;;;;;;;;;;;1.89;87.03;94065.04;109094;1273;23173;-83
2023/01/17 01:55:02;;;;;;;;;;;;;;;1.98;86.63;94064.09;109096;1273;22501;-83
2023/01/17 01:57:35;;;;;;;;;;;;;;;2.01;86.58;94066.20;109124;1272;22502;-83
2023/01/17 02:00:10;;;;;;;;;;;;;;;1.99;86.34;94065.98;109137;1273;22509;-83
2023/01/17 02:02:43;;;;;;;;;;;;;;;1.94;86.16;94063.69;109118;1273;22683;-83
2023/01/17 02:05:16;;;;;;;;;;;;;;;1.99;85.65;94055.84;109151;1273;22501;-83
2023/01/17 02:07:52;;;;;;;;;;;;;;;2.13;84.91;94061.62;109121;1266;25726;-83
2023/01/17 02:10:21;;;;;;;;;;;;;;;2.19;84.26;94056.91;109103;1269;30257;-83
2023/01/17 02:12:51;;;;;;;;;;;;;;;2.30;83.63;94040.30;109109;1273;22517;-83
2023/01/17 02:15:24;;;;;;;;;;;;;;;2.45;82.99;94053.05;109088;1272;22686;-83
2023/01/17 02:17:59;;;;;;;;;;;;;;;2.44;83.07;94056.30;109144;1273;22563;-83
2023/01/17 02:20:43;;;;;;;;;;;;;;;2.42;82.81;94054.69;109086;1273;56541;-83
2023/01/17 02:23:25;;;;;;;;;;;;;;;2.42;82.82;94050.97;109086;1273;22517;-83
2023/01/17 02:26:13;;;;;;;;;;;;;;;2.38;83.03;94048.63;109130;1273;22509;-83
2023/01/17 02:28:53;;;;;;;;;;;;;;;2.31;83.02;94042.95;109135;1273;23930;-83
2023/01/17 02:31:27;;;;;;;;;;;;;;;2.28;83.04;94044.11;109056;1273;57713;-83
2023/01/17 02:34:01;;;;;;;;;;;;;;;2.17;82.89;94044.45;109131;1270;22507;-83
2023/01/17 02:36:34;;;;;;;;;;;;;;;2.05;82.83;94041.26;109180;1273;23743;-83
2023/01/17 02:39:08;;;;;;;;;;;;;;;1.99;83.09;94048.36;109158;1270;24243;-83
2023/01/17 02:41:39;;;;;;;;;;;;;;;1.89;83.24;94050.14;109100;1272;22607;-83
2023/01/17 02:44:09;;;;;;;;;;;;;;;1.88;83.37;94059.92;109139;1273;22540;-83
2023/01/17 02:46:45;;;;;;;;;;;;;;;1.86;83.39;94053.81;109132;1273;22549;-83
2023/01/17 02:49:16;;;;;;;;;;;;;;;1.98;83.75;94056.39;109085;1273;71431;-83
2023/01/17 02:51:58;;;;;;;;;;;;;;;1.99;83.29;94051.13;109154;1272;22494;-83
2023/01/17 02:54:38;;;;;;;;;;;;;;;2.02;83.18;94059.81;109116;1273;25387;-83
2023/01/17 02:57:13;;;;;;;;;;;;;;;1.99;83.13;94059.20;109121;1273;22505;-83
2023/01/17 02:59:47;;;;;;;;;;;;;;;1.93;83.05;94058.02;109101;1273;43970;-83
2023/01/17 03:02:23;;;;;;;;;;;;;;;1.90;83.15;94066.07;109164;1273;22538;-83
2023/01/17 03:04:56;;;;;;;;;;;;;;;1.91;83.19;94073.15;109098;1273;22492;-83
2023/01/17 03:07:27;;;;;;;;;;;;;;;1.95;83.27;94067.91;109121;1270;22925;-83
2023/01/17 03:09:59;;;;;;;;;;;;;;;1.99;83.09;94065.63;109133;1273;50231;-83
2023/01/17 03:12:29;;;;;;;;;;;;;;;2.06;83.08;94069.98;109154;1273;22504;-83
2023/01/17 03:14:59;;;;;;;;;;;;;;;2.15;82.83;94074.16;109108;1273;22645;-83
2023/01/17 03:17:29;;;;;;;;;;;;;;;2.25;82.44;94073.75;109110;1269;22712;-83
2023/01/17 03:19:59;;;;;;;;;;;;;;;2.27;82.46;94082.30;109059;1273;37446;-83
2023/01/17 03:22:30;;;;;;;;;;;;;;;2.26;82.43;94085.92;109170;1273;23733;-83
2023/01/17 03:25:00;;;;;;;;;;;;;;;2.28;82.41;94084.58;109143;1273;22509;-83
2023/01/17 03:27:29;;;;;;;;;;;;;;;2.30;82.33;94087.72;109171;1273;22523;-83
2023/01/17 03:29:59;;;;;;;;;;;;;;;2.36;82.36;94098.42;109024;1273;48056;-83
2023/01/17 03:32:28;;;;;;;;;;;;;;;2.33;82.34;94097.28;109108;1273;23723;-83
2023/01/17 03:34:58;;;;;;;;;;;;;;;2.26;82.37;94091.77;109100;1267;22643;-83
2023/01/17 03:37:27;;;;;;;;;;;;;;;2.29;82.30;94097.66;109145;1273;22526;-83
2023/01/17 03:39:57;;;;;;;;;;;;;;;2.32;82.32;94100.76;109096;1273;32552;-83
2023/01/17 03:42:26;;;;;;;;;;;;;;;2.31;82.32;94098.21;109105;1270;22516;-83
2023/01/17 03:44:56;;;;;;;;;;;;;;;2.28;82.34;94093.04;109068;1273;22877;-83
2023/01/17 03:47:26;;;;;;;;;;;;;;;2.28;82.28;94097.84;109136;1273;22562;-84
2023/01/17 03:49:57;;;;;;;;;;;;;;;2.31;82.26;94099.63;109052;1273;48204;-84
2023/01/17 03:52:27;;;;;;;;;;;;;;;2.32;82.19;94099.23;109125;1273;22516;-84
2023/01/17 03:54:56;;;;;;;;;;;;;;;2.38;81.99;94099.92;109096;1273;22551;-84
2023/01/17 03:57:30;;;;;;;;;;;;;;;2.46;81.56;94097.42;109106;1270;22513;-83
2023/01/17 04:00:00;;;;;;;;;;;;;;;2.50;81.29;94109.64;109005;1254;94167;-83
2023/01/17 04:02:29;;;;;;;;;;;;;;;2.46;81.04;94109.27;109125;1273;22500;-83
2023/01/17 04:04:59;;;;;;;;;;;;;;;2.42;80.90;94101.69;109113;1273;22610;-84
2023/01/17 04:07:31;;;;;;;;;;;;;;;2.40;80.60;94093.46;109116;1273;22528;-84
2023/01/17 04:10:00;;;;;;;;;;;;;;;2.35;80.71;94098.45;109058;1269;46444;-84
2023/01/17 04:12:32;;;;;;;;;;;;;;;2.31;80.90;94102.92;109092;1273;22504;-84
2023/01/17 04:15:04;;;;;;;;;;;;;;;2.24;81.14;94098.12;109125;1273;22510;-84
2023/01/17 04:17:34;;;;;;;;;;;;;;;2.16;81.36;94100.77;109132;1273;22522;-83
2023/01/17 04:20:04;;;;;;;;;;;;;;;2.09;81.49;94103.16;109101;1273;48244;-83
2023/01/17 04:22:33;;;;;;;;;;;;;;;2.03;81.69;94103.02;109107;1270;22499;-84
2023/01/17 04:25:03;;;;;;;;;;;;;;;1.98;81.98;94101.88;109125;1273;22539;-84
2023/01/17 04:27:32;;;;;;;;;;;;;;;1.98;82.20;94106.75;109125;1273;23802;-84
2023/01/17 04:30:02;;;;;;;;;;;;;;;1.96;82.35;94106.73;109058;1273;40568;-83
2023/01/17 04:32:34;;;;;;;;;;;;;;;1.95;82.75;94106.37;109102;1271;22528;-83
2023/01/17 04:35:08;;;;;;;;;;;;;;;2.00;82.91;94103.59;109128;1273;23280;-84
2023/01/17 04:37:37;;;;;;;;;;;;;;;2.06;83.01;94105.20;109132;1273;22918;-83
2023/01/17 04:40:08;;;;;;;;;;;;;;;2.12;83.01;94107.20;109079;1272;46328;-84
2023/01/17 04:42:38;;;;;;;;;;;;;;;2.15;82.95;94108.79;109227;1273;24027;-84
2023/01/17 04:45:08;;;;;;;;;;;;;;;2.18;83.07;94113.28;109099;1273;24280;-84
2023/01/17 04:47:38;;;;;;;;;;;;;;;2.23;83.03;94107.70;109163;1273;22522;-84
2023/01/17 04:50:09;;;;;;;;;;;;;;;2.30;82.93;94110.71;109087;1273;39889;-83
2023/01/17 04:52:39;;;;;;;;;;;;;;;2.35;83.07;94116.45;109253;1273;25210;-84
2023/01/17 04:55:10;;;;;;;;;;;;;;;2.39;82.89;94104.45;109132;1270;26651;-83
2023/01/17 04:57:40;;;;;;;;;;;;;;;2.43;82.74;94103.41;109090;1273;25269;-83
2023/01/17 05:00:10;;;;;;;;;;;;;;;2.45;82.74;94100.97;109067;1273;29234;-84
2023/01/17 05:02:40;;;;;;;;;;;;;;;2.49;82.70;94107.14;109109;1273;26652;-84
2023/01/17 05:05:10;;;;;;;;;;;;;;;2.58;82.41;94098.53;109171;1273;24244;-84
2023/01/17 05:07:40;;;;;;;;;;;;;;;2.64;82.14;94087.73;109102;1264;23261;-84
2023/01/17 05:10:12;;;;;;;;;;;;;;;2.69;81.83;94086.88;109050;1269;76954;-84
2023/01/17 05:12:42;;;;;;;;;;;;;;;2.77;81.36;94079.45;109147;1270;22568;-84
2023/01/17 05:15:11;;;;;;;;;;;;;;;2.80;81.15;94082.77;109102;1273;22586;-84
2023/01/17 05:17:41;;;;;;;;;;;;;;;2.82;81.05;94086.54;109142;1268;22574;-84
2023/01/17 05:20:11;;;;;;;;;;;;;;;2.85;80.93;94078.20;109074;1273;43099;-83
2023/01/17 05:22:41;;;;;;;;;;;;;;;2.85;80.84;94070.41;109135;1273;22510;-84
2023/01/17 05:25:10;;;;;;;;;;;;;;;2.81;80.92;94071.92;109148;1269;22527;-83
2023/01/17 05:27:39;;;;;;;;;;;;;;;2.82;81.04;94080.93;109143;1270;22510;-84
2023/01/17 05:30:10;;;;;;;;;;;;;;;2.86;80.93;94064.33;109120;1273;33673;-84
2023/01/17 05:32:41;;;;;;;;;;;;;;;2.87;80.91;94052.83;109229;1273;22854;-83
2023/01/17 05:35:11;;;;;;;;;;;;;;;2.87;80.88;94045.55;109139;1273;22516;-85
2023/01/17 05:37:47;;;;;;;;;;;;;;;2.85;80.84;94034.86;109101;1273;22498;-85
2023/01/17 05:40:17;;;;;;;;;;;;;;;2.84;80.85;94026.17;109118;1273;50336;-83
2023/01/17 05:42:48;;;;;;;;;;;;;;;2.81;80.91;94027.11;109133;1270;23111;-84
2023/01/17 05:45:18;;;;;;;;;;;;;;;2.80;80.98;94038.73;109128;1267;22650;-84
2023/01/17 05:47:51;;;;;;;;;;;;;;;2.81;80.91;94050.48;109110;1273;25281;-84
2023/01/17 05:50:22;;;;;;;;;;;;;;;2.82;80.91;94054.14;109091;1273;61786;-83
2023/01/17 05:52:52;;;;;;;;;;;;;;;2.83;81.00;94059.35;109077;1270;22563;-83
2023/01/17 05:55:22;;;;;;;;;;;;;;;2.81;81.08;94067.95;109118;1271;23820;-83
2023/01/17 05:57:52;;;;;;;;;;;;;;;2.78;81.16;94060.44;109127;1273;23257;-84
2023/01/17 06:00:22;;;;;;;;;;;;;;;2.73;81.30;94061.79;109042;1268;52716;-83
2023/01/17 06:02:53;;;;;;;;;;;;;;;2.66;81.35;94061.55;109133;1258;24899;-84
2023/01/17 06:05:23;;;;;;;;;;;;;;;2.60;81.44;94064.59;109126;1273;23063;-83
2023/01/17 06:07:53;;;;;;;;;;;;;;;2.55;81.65;94070.34;109110;1273;23669;-84
2023/01/17 06:10:23;;;;;;;;;;;;;;;2.50;81.82;94064.05;109118;1270;56500;-83
2023/01/17 06:13:00;;;;;;;;;;;;;;;2.48;81.99;94068.79;109121;1267;24186;-84
2023/01/17 06:15:30;;;;;;;;;;;;;;;2.45;81.99;94068.49;109157;1273;22510;-84
2023/01/17 06:18:03;;;;;;;;;;;;;;;2.42;82.16;94079.63;109108;1267;22592;-84
2023/01/17 06:20:34;;;;;;;;;;;;;;;2.40;82.24;94089.61;109088;1273;36435;-84
2023/01/17 06:23:05;;;;;;;;;;;;;;;2.40;82.35;94094.26;109136;1273;22499;-84
2023/01/17 06:25:37;;;;;;;;;;;;;;;2.44;82.30;94091.40;109161;1270;23717;-85
2023/01/17 06:28:07;;;;;;;;;;;;;;;2.44;82.46;94089.42;109202;1270;25418;-84
2023/01/17 06:30:39;;;;;;;;;;;;;;;2.41;82.50;94088.48;109027;1271;26395;-84
2023/01/17 06:33:09;;;;;;;;;;;;;;;2.38;82.62;94084.39;109101;1270;24157;-83
2023/01/17 06:35:39;;;;;;;;;;;;;;;2.35;82.74;94087.40;109140;1273;24240;-84
2023/01/17 06:38:09;;;;;;;;;;;;;;;2.34;82.91;94089.15;109053;1262;22499;-84
2023/01/17 06:40:38;;;;;;;;;;;;;;;2.33;83.00;94088.19;109057;1270;65677;-84
2023/01/17 06:43:08;;;;;;;;;;;;;;;2.32;83.00;94091.65;109119;1273;22494;-84
2023/01/17 06:45:37;;;;;;;;;;;;;;;2.32;83.07;94088.69;109126;1270;24448;-86
2023/01/17 06:48:07;;;;;;;;;;;;;;;2.31;83.15;94085.55;109109;1270;23181;-84
2023/01/17 06:50:36;;;;;;;;;;;;;;;2.29;83.17;94084.60;109064;1269;46207;-83
2023/01/17 06:53:06;;;;;;;;;;;;;;;2.29;83.20;94081.16;109056;1267;22520;-83
2023/01/17 06:55:39;;;;;;;;;;;;;;;2.34;83.35;94079.11;109177;1273;26454;-83
2023/01/17 06:58:08;;;;;;;;;;;;;;;2.36;83.19;94084.24;109112;1273;24279;-84
2023/01/17 07:00:38;;;;;;;;;;;;;;;2.38;83.26;94083.23;109099;1267;57137;-84
2023/01/17 07:03:15;;;;;;;;;;;;;;;2.41;83.21;94082.11;109097;1273;22531;-84
2023/01/17 07:05:44;;;;;;;;;;;;;;;2.42;83.32;94078.95;109143;1267;22515;-84
2023/01/17 07:08:17;;;;;;;;;;;;;;;2.43;83.24;94078.31;109148;1273;22649;-84
2023/01/17 07:10:49;;;;;;;;;;;;;;;2.43;83.44;94072.45;109069;1273;56200;-84
2023/01/17 07:13:19;;;;;;;;;;;;;;;2.44;83.36;94074.20;109081;1267;25428;-84
2023/01/17 07:15:51;;;;;;;;;;;;;;;2.46;83.38;94074.27;109133;1267;22560;-84
2023/01/17 07:18:22;;;;;;;;;;;;;;;2.49;83.33;94074.35;109057;1270;22627;-84
2023/01/17 07:20:52;;;;;;;;;;;;;;;2.51;83.27;94077.58;109081;1273;56944;-84
2023/01/17 07:23:22;;;;;;;;;;;;;;;2.53;83.32;94085.06;109100;1267;22604;-84
2023/01/17 07:25:53;;;;;;;;;;;;;;;2.53;83.34;94088.15;109126;1273;23183;-84
2023/01/17 07:28:23;;;;;;;;;;;;;;;2.55;83.31;94096.29;109150;1273;22541;-85
2023/01/17 07:30:54;;;;;;;;;;;;;;;2.57;83.33;94093.23;109028;1273;60517;-84
2023/01/17 07:33:24;;;;;;;;;;;;;;;2.56;83.24;94096.11;109102;1270;23639;-84
2023/01/17 07:35:53;;;;;;;;;;;;;;;2.54;83.45;94095.98;109157;1270;22491;-85
2023/01/17 07:38:23;;;;;;;;;;;;;;;2.51;83.67;94107.64;109082;1267;23868;-84
2023/01/17 07:40:57;;;;;;;;;;;;;;;2.48;83.95;94116.42;109057;1273;46554;-83
2023/01/17 07:43:27;;;;;;;;;;;;;;;2.44;84.17;94119.97;109100;1265;24059;-84
2023/01/17 07:45:57;;;;;;;;;;;;;;;2.37;84.47;94131.20;109112;1273;22502;-84
2023/01/17 07:48:29;;;;;;;;;;;;;;;2.32;84.81;94134.01;109033;1265;23223;-83
2023/01/17 07:51:00;;;;;;;;;;;;;;;2.29;85.29;94135.31;109084;1267;67311;-85
2023/01/17 07:53:31;;;;;;;;;;;;;;;2.25;85.69;94133.28;109146;1267;22539;-84
2023/01/17 07:56:03;;;;;;;;;;;;;;;2.22;86.08;94139.45;109114;1254;22639;-84
2023/01/17 07:58:35;;;;;;;;;;;;;;;2.18;86.44;94145.58;109118;1273;25504;-84
2023/01/17 08:01:07;;;;;;;;;;;;;;;2.15;86.96;94152.75;109032;1267;34969;-84
2023/01/17 08:03:38;;;;;;;;;;;;;;;2.10;87.34;94158.81;109099;1273;22501;-85
2023/01/17 08:06:16;;;;;;;;;;;;;;;2.03;87.85;94160.77;109170;1273;23780;-85
2023/01/17 08:08:45;;;;;;;;;;;;;;;2.02;87.99;94162.97;109114;1273;25220;-85
2023/01/17 08:11:16;;;;;;;;;;;;;;;1.98;88.42;94166.41;109103;1266;35397;-84
2023/01/17 08:13:48;;;;;;;;;;;;;;;1.95;88.84;94174.96;109095;1267;22595;-85
2023/01/17 08:16:18;;;;;;;;;;;;;;;1.92;89.12;94175.38;109117;1273;23942;-85
2023/01/17 08:18:47;;;;;;;;;;;;;;;1.88;89.36;94174.52;109118;1270;22504;-85
2023/01/17 08:21:17;;;;;;;;;;;;;;;1.83;89.98;94178.55;109052;1273;29449;-85
2023/01/17 08:23:49;;;;;;;;;;;;;;;1.76;90.29;94180.72;109095;1273;24260;-84
2023/01/17 08:26:21;;;;;;;;;;;;;;;1.73;90.62;94186.00;109141;1266;22537;-85
2023/01/17 08:28:54;;;;;;;;;;;;;;;1.70;91.30;94182.42;109079;1273;22533;-84
2023/01/17 08:31:30;;;;;;;;;;;;;;;1.63;91.69;94190.88;109036;1266;68513;-85
2023/01/17 08:33:59;;;;;;;;;;;;;;;1.61;91.96;94191.89;109135;1273;22610;-84
2023/01/17 08:36:30;;;;;;;;;;;;;;;1.60;92.24;94195.99;109125;1269;22547;-85
2023/01/17 08:38:59;;;;;;;;;;;;;;;1.60;92.52;94201.22;109099;1273;22494;-85
2023/01/17 08:41:31;;;;;;;;;;;;;;;1.60;92.62;94210.14;108984;1266;86689;-84
2023/01/17 08:44:02;;;;;;;;;;;;;;;1.61;92.81;94213.25;109130;1267;24155;-85
2023/01/17 08:46:32;;;;;;;;;;;;;;;1.63;93.14;94214.27;109158;1271;22530;-85
2023/01/17 08:49:02;;;;;;;;;;;;;;;1.63;93.46;94214.33;109121;1267;25464;-85
2023/01/17 08:51:32;;;;;;;;;;;;;;;1.64;93.39;94218.70;109028;1273;42328;-85
2023/01/17 08:54:01;;;;;;;;;;;;;;;1.63;93.45;94227.96;109106;1267;23761;-84
2023/01/17 08:56:31;;;;;;;;;;;;;;;1.62;93.51;94222.85;109001;1273;137666;-84
2023/01/17 08:59:01;;;;;;;;;;;;;;;1.63;93.85;94226.39;109088;1273;22521;-84
2023/01/17 09:01:40;;;;;;;;;;;;;;;1.65;94.10;94228.02;109092;1273;52460;-85
2023/01/17 09:04:10;;;;;;;;;;;;;;;1.66;94.11;94233.02;109124;1273;23003;-84
2023/01/17 09:06:40;;;;;;;;;;;;;;;1.66;94.40;94236.53;109107;1273;24180;-84
2023/01/17 09:09:11;;;;;;;;;;;;;;;1.65;94.56;94242.80;109145;1266;25412;-85
2023/01/17 09:11:41;;;;;;;;;;;;;;;1.65;94.64;94245.53;109113;1266;22502;-84
2023/01/17 09:14:13;;;;;;;;;;;;;;;1.66;95.08;94249.22;109104;1269;23823;-84
2023/01/17 09:16:45;;;;;;;;;;;;;;;1.70;95.07;94249.76;109147;1273;22496;-84
2023/01/17 09:19:15;;;;;;;;;;;;;;;1.78;95.25;94241.36;109061;1270;28958;-84
2023/01/17 09:21:45;;;;;;;;;;;;;;;1.89;95.53;94235.30;109142;1273;22541;-84
2023/01/17 09:24:14;;;;;;;;;;;;;;;1.98;95.42;94230.42;109139;1273;22514;-84
2023/01/17 09:26:44;;;;;;;;;;;;;;;2.12;95.75;94228.10;109180;1266;22510;-84
2023/01/17 09:29:16;;;;;;;;;;;;;;;2.22;95.68;94229.10;109037;1270;90516;-84
2023/01/17 09:31:47;;;;;;;;;;;;;;;2.33;96.06;94237.14;109114;1273;22498;-84
2023/01/17 09:34:18;;;;;;;;;;;;;;;2.36;96.10;94236.41;109118;1273;22513;-85
2023/01/17 09:36:48;;;;;;;;;;;;;;;2.40;96.17;94231.00;109150;1273;22562;-84
2023/01/17 09:39:18;;;;;;;;;;;;;;;2.46;96.09;94226.60;109076;1273;60982;-85
2023/01/17 09:41:52;;;;;;;;;;;;;;;2.49;95.84;94211.65;109126;1267;24524;-85
2023/01/17 09:44:26;;;;;;;;;;;;;;;2.47;95.57;94203.16;109145;1262;25566;-85
2023/01/17 09:46:58;;;;;;;;;;;;;;;2.41;95.27;94199.17;109122;1266;23810;-85
2023/01/17 09:49:40;;;;;;;;;;;;;;;2.41;95.44;94192.87;109037;1273;68756;-84
2023/01/17 09:52:14;;;;;;;;;;;;;;;2.41;95.40;94199.40;109150;1265;22524;-84
2023/01/17 09:54:46;;;;;;;;;;;;;;;2.41;95.76;94201.02;109152;1273;22484;-84
2023/01/17 09:57:27;;;;;;;;;;;;;;;2.40;95.95;94198.58;109127;1269;24209;-84
2023/01/17 10:00:05;;;;;;;;;;;;;;;2.42;95.89;94200.80;109052;1267;68554;-85
2023/01/17 10:02:46;;;;;;;;;;;;;;;2.45;96.00;94210.15;109098;1273;24218;-85
2023/01/17 10:05:38;;;;;;;;;;;;;;;2.47;96.12;94213.88;109146;1273;25432;-84
2023/01/17 10:08:15;;;;;;;;;;;;;;;2.52;96.09;94221.12;109118;1265;22520;-84
2023/01/17 10:10:56;;;;;;;;;;;;;;;2.56;96.01;94231.64;109084;1273;22571;-84
2023/01/17 10:13:34;;;;;;;;;;;;;;;2.60;96.05;94231.08;109086;1273;24287;-85
2023/01/17 10:16:10;;;;;;;;;;;;;;;2.68;95.85;94225.78;109111;1273;24222;-85
2023/01/17 10:18:57;;;;;;;;;;;;;;;2.78;95.55;94223.57;109073;1270;23722;-84
2023/01/17 10:21:33;;;;;;;;;;;;;;;2.87;95.22;94224.58;109011;1273;51478;-85
2023/01/17 10:24:15;;;;;;;;;;;;;;;2.93;95.02;94212.69;109102;1266;22569;-85
2023/01/17 10:26:47;;;;;;;;;;;;;;;3.06;95.00;94214.45;109166;1273;22508;-85
2023/01/17 10:29:20;;;;;;;;;;;;;;;3.24;95.07;94213.20;109088;1265;44653;-84
2023/01/17 10:31:52;;;;;;;;;;;;;;;3.35;94.63;94208.91;109111;1273;22523;-85
2023/01/17 10:34:25;;;;;;;;;;;;;;;3.51;94.74;94213.83;109098;1273;25278;-86
2023/01/17 10:36:59;;;;;;;;;;;;;;;3.68;94.41;94215.91;109127;1266;22536;-86
2023/01/17 10:39:31;;;;;;;;;;;;;;;3.70;93.32;94219.59;109069;1273;45396;-86
2023/01/17 10:42:06;;;;;;;;;;;;;;;3.79;93.11;94224.80;109192;1270;22547;-85
2023/01/17 10:44:40;;;;;;;;;;;;;;;3.99;92.99;94232.83;109153;1273;22543;-86
2023/01/17 10:47:14;;;;;;;;;;;;;;;4.21;92.75;94229.06;109076;1273;22513;-86
2023/01/17 10:49:45;;;;;;;;;;;;;;;4.38;92.32;94223.68;109105;1273;59352;-86
2023/01/17 10:52:19;;;;;;;;;;;;;;;4.48;91.83;94227.17;109102;1273;22577;-86
2023/01/17 10:55:03;;;;;;;;;;;;;;;4.46;91.04;94236.08;109133;1266;23385;-86
2023/01/17 10:57:38;;;;;;;;;;;;;;;4.35;90.03;94232.58;109144;1273;22739;-86
2023/01/17 11:00:19;;;;;;;;;;;;;;;4.28;89.65;94231.78;109107;1269;30008;-86
2023/01/17 11:02:53;;;;;;;;;;;;;;;4.19;88.58;94231.23;109058;1273;23596;-86
2023/01/17 11:05:27;;;;;;;;;;;;;;;4.10;88.62;94228.45;109073;1273;22501;-86
2023/01/17 11:08:01;;;;;;;;;;;;;;;4.05;88.55;94223.09;109127;1269;22609;-86
2023/01/17 11:10:38;;;;;;;;;;;;;;;4.05;88.58;94219.54;109073;1273;48743;-86
2023/01/17 11:13:22;;;;;;;;;;;;;;;4.13;88.63;94208.25;109109;1273;22541;-86
2023/01/17 11:15:56;;;;;;;;;;;;;;;4.36;88.72;94204.65;109143;1262;22718;-85
2023/01/17 11:18:28;;;;;;;;;;;;;;;4.58;88.44;94207.43;109089;1273;23207;-85
2023/01/17 11:21:10;;;;;;;;;;;;;;;4.78;88.26;94211.58;109027;1273;89126;-87
2023/01/17 11:23:43;;;;;;;;;;;;;;;4.95;87.72;94223.01;109069;1273;22494;-86
2023/01/17 11:26:25;;;;;;;;;;;;;;;5.10;86.68;94229.05;109096;1273;22543;-87
2023/01/17 11:29:13;;;;;;;;;;;;;;;5.22;86.18;94230.84;109150;1273;22512;-87
2023/01/17 11:31:49;;;;;;;;;;;;;;;5.44;85.09;94231.11;109103;1273;22520;-86
2023/01/17 11:34:30;;;;;;;;;;;;;;;5.58;84.62;94229.31;109119;1273;22501;-86
2023/01/17 11:37:18;;;;;;;;;;;;;;;5.65;82.53;94229.13;109074;1273;22500;-86
2023/01/17 11:40:07;;;;;;;;;;;;;;;5.63;80.57;94227.38;109044;1273;37285;-89
2023/01/17 11:42:39;;;;;;;;;;;;;;;5.67;80.00;94222.45;109124;1273;22497;-86
2023/01/17 11:45:26;;;;;;;;;;;;;;;5.71;79.66;94223.96;109123;1273;22666;-86
2023/01/17 11:48:13;;;;;;;;;;;;;;;5.78;78.89;94228.88;109114;1273;22507;-86
2023/01/17 11:50:44;;;;;;;;;;;;;;;5.73;77.44;94230.27;109089;1266;34101;-86
2023/01/17 11:53:17;;;;;;;;;;;;;;;5.76;78.08;94231.77;109062;1273;25533;-87
2023/01/17 11:55:57;;;;;;;;;;;;;;;5.83;78.19;94228.52;109129;1265;22516;-86
2023/01/17 11:58:28;;;;;;;;;;;;;;;5.95;78.36;94232.63;109104;1273;22507;-86
2023/01/17 12:01:06;;;;;;;;;;;;;;;6.13;77.93;94229.48;109064;1273;54678;-87
2023/01/17 12:03:55;;;;;;;;;;;;;;;6.24;77.98;94228.52;109113;1273;25410;-87
2023/01/17 12:06:32;;;;;;;;;;;;;;;6.39;78.13;94228.30;109104;1273;22508;-86
2023/01/17 12:09:14;;;;;;;;;;;;;;;6.53;78.14;94233.54;109091;1265;23203;-86
2023/01/17 12:14:41;;;;;;;;;;;;;;;6.67;77.39;94225.11;109138;1266;22687;-86
2023/01/17 12:17:19;;;;;;;;;;;;;;;6.74;76.72;94228.55;109095;1269;22522;-86
2023/01/17 12:19:59;;;;;;;;;;;;;;;6.77;76.23;94231.39;109070;1269;23558;-87
2023/01/17 12:22:37;;;;;;;;;;;;;;;6.72;74.79;94227.55;109057;1270;24948;-87
2023/01/17 12:25:21;;;;;;;;;;;;;;;6.69;75.04;94227.42;109117;1270;22562;-86
2023/01/17 12:27:57;;;;;;;;;;;;;;;6.62;73.90;94229.10;109131;1266;22923;-87
2023/01/17 12:30:36;;;;;;;;;;;;;;;6.54;73.55;94222.23;108983;1273;113228;-86
2023/01/17 12:33:10;;;;;;;;;;;;;;;6.58;74.10;94212.45;109128;1273;22636;-86
2023/01/17 12:35:45;;;;;;;;;;;;;;;6.63;73.51;94213.92;109066;1269;22524;-86
2023/01/17 12:38:20;;;;;;;;;;;;;;;6.58;72.44;94209.49;109101;1266;22664;-85
2023/01/17 12:40:53;;;;;;;;;;;;;;;6.53;72.02;94212.17;109047;1273;41497;-85
2023/01/17 12:43:29;;;;;;;;;;;;;;;6.36;71.83;94212.48;109180;1261;25434;-85
2023/01/17 12:46:00;;;;;;;;;;;;;;;6.46;73.07;94207.86;109110;1273;22546;-85
2023/01/17 12:48:34;;;;;;;;;;;;;;;6.56;72.45;94207.80;109055;1273;22505;-85
2023/01/17 12:51:06;;;;;;;;;;;;;;;6.55;71.10;94206.25;109074;1267;62451;-85
2023/01/17 12:53:40;;;;;;;;;;;;;;;6.46;70.79;94216.52;109113;1273;22543;-85
2023/01/17 12:56:14;;;;;;;;;;;;;;;6.53;71.06;94221.59;109093;1270;22505;-84
2023/01/17 12:58:46;;;;;;;;;;;;;;;6.47;69.81;94219.60;109102;1266;22511;-84
2023/01/17 13:01:22;;;;;;;;;;;;;;;6.31;69.38;94218.95;109054;1269;44348;-85
2023/01/17 13:04:00;;;;;;;;;;;;;;;6.27;69.52;94222.98;109084;1273;22515;-85
2023/01/17 13:06:40;;;;;;;;;;;;;;;6.30;69.81;94223.92;109081;1273;22576;-85
2023/01/17 13:09:13;;;;;;;;;;;;;;;6.29;69.47;94228.58;109055;1266;22494;-87
2023/01/17 13:11:48;;;;;;;;;;;;;;;6.27;69.30;94229.44;109115;1273;22515;-85
2023/01/17 13:14:20;;;;;;;;;;;;;;;6.29;69.68;94237.42;109123;1273;25284;-84
2023/01/17 13:16:56;;;;;;;;;;;;;;;6.38;70.69;94241.45;109089;1273;22508;-85
2023/01/17 13:19:30;;;;;;;;;;;;;;;6.50;69.93;94243.20;109016;1267;65452;-85
2023/01/17 13:22:01;;;;;;;;;;;;;;;6.47;69.95;94248.77;109070;1266;25290;-84
2023/01/17 13:24:34;;;;;;;;;;;;;;;6.50;69.67;94258.29;109056;1273;22517;-85
2023/01/17 13:27:11;;;;;;;;;;;;;;;6.42;69.87;94260.65;109113;1273;22504;-85
2023/01/17 13:29:47;;;;;;;;;;;;;;;6.42;70.19;94264.34;109017;1267;49666;-85
2023/01/17 13:32:33;;;;;;;;;;;;;;;6.42;69.88;94268.98;109108;1273;22505;-84
2023/01/17 13:35:13;;;;;;;;;;;;;;;6.37;69.77;94266.14;109094;1269;22531;-85
2023/01/17 13:37:51;;;;;;;;;;;;;;;6.23;69.57;94275.13;109131;1273;22565;-85
2023/01/17 13:40:32;;;;;;;;;;;;;;;6.19;69.84;94281.95;109027;1273;34015;-85
2023/01/17 13:43:03;;;;;;;;;;;;;;;6.12;69.76;94282.22;109071;1269;22498;-84
2023/01/17 13:45:34;;;;;;;;;;;;;;;6.10;69.72;94282.38;109117;1273;22646;-85
2023/01/17 13:48:27;;;;;;;;;;;;;;;6.04;70.03;94292.52;109072;1273;23108;-84
2023/01/17 13:50:57;;;;;;;;;;;;;;;6.05;70.22;94298.58;108945;1266;47903;-84
2023/01/17 13:53:58;;;;;;;;;;;;;;;6.05;70.51;94296.40;109082;1269;22520;-84
2023/01/17 13:56:32;;;;;;;;;;;;;;;5.98;70.20;94302.70;109119;1273;22499;-83
2023/01/17 13:59:24;;;;;;;;;;;;;;;5.88;70.07;94310.16;109068;1270;23855;-82
2023/01/17 14:01:54;;;;;;;;;;;;;;;5.82;70.19;94314.99;109064;1273;22506;-83
2023/01/17 14:04:25;;;;;;;;;;;;;;;5.73;70.52;94318.84;109105;1273;22658;-83
2023/01/17 14:06:58;;;;;;;;;;;;;;;5.67;70.40;94321.73;109098;1273;22546;-82
2023/01/17 14:09:30;;;;;;;;;;;;;;;5.58;70.22;94319.83;109104;1266;50957;-83
2023/01/17 14:12:05;;;;;;;;;;;;;;;5.46;70.63;94325.02;109113;1273;23906;-83
2023/01/17 14:14:51;;;;;;;;;;;;;;;5.27;70.82;94318.55;109106;1273;22521;-83
2023/01/17 14:17:34;;;;;;;;;;;;;;;5.02;71.20;94316.05;109080;1266;22491;-82
2023/01/17 14:20:21;;;;;;;;;;;;;;;4.83;71.52;94319.29;109084;1273;28387;-82
2023/01/17 14:22:53;;;;;;;;;;;;;;;4.65;71.99;94322.94;109101;1266;22580;-82
2023/01/17 14:25:24;;;;;;;;;;;;;;;4.54;72.37;94323.50;109128;1273;22519;-83
2023/01/17 14:28:00;;;;;;;;;;;;;;;4.45;72.77;94328.41;109154;1273;22501;-83
2023/01/17 14:30:35;;;;;;;;;;;;;;;4.33;73.18;94326.36;109039;1273;58537;-82
2023/01/17 14:33:14;;;;;;;;;;;;;;;4.25;73.40;94325.33;109105;1266;22601;-82
2023/01/17 14:35:51;;;;;;;;;;;;;;;4.18;73.61;94331.37;109120;1273;22535;-82
2023/01/17 14:38:22;;;;;;;;;;;;;;;4.15;73.86;94337.63;109117;1273;22498;-82
2023/01/17 14:40:53;;;;;;;;;;;;;;;4.08;73.78;94341.17;108931;1273;86272;-83
2023/01/17 14:43:27;;;;;;;;;;;;;;;4.03;73.75;94340.64;109094;1273;22728;-82